עמוד ראשי
METAR-TAF:

METAR-TAF

שדות תעופה :

Chignik, אלסקה, ארצות הברית

קו רוחב: 56-18-41N, קו אורך: 158-22-24W, גובה: 6מטר

תצפית מזג אוויר נוכחית

הדו"ח נערך לפני 51דקות, בשעה 10:57 UTC
רוח 3קשר מכיוון דרום-מזרח
טמפרטורת 9 צלסיוס
לחות 71%
לחץ 1023 hPa
ראות: 16.1קילומטר
שמיים נקיים

METAR: PAJC 151057Z AUTO 14003KT 10SM CLR 09/04 A3022 RMK AO2 SLP234 T00940044 $

זמן: 03:48 (11:48 UTC)


TAF: חסר

תצפיות ותחזיות מזג אוויר לגבי יותר מ- 4,000 שדות תעופה ברחבי העולם. דוחות METAR ו- TAF.

התחנות הזמינות מסומנות בנקודות צהובות ואדומות על גבי המפה.

העבר את העכבר לנקודה הצבעונית על מנת לראות את שם התחנה.

לאחר מכן, לחץ כדי לראות את תוכן ואת תחזיות מזג האוויר.

כדי לשנות את המפה: לחץ על הכפתורים הירוקים עם הפלוס השחור כדי להתקרב; על הכפתור הירוק עם המקף כדי להתרחק; או בחיצים הירוקים למפות סמוכות.


METAR-TAF: